Time;durP1;ratioP1;P1;durP2;ratioP2;P2;SDS_P1;SDS_P2;PMS_P1;PMS_P2;Temp;Humidity;BMP_temperature;BMP_pressure;BME280_temperature;BME280_humidity;BME280_pressure;Samples;Min_cycle;Max_cycle;Signal;HPM_P1;HPM_P2
2021/03/08 00:01:21;;;;;;;7.45;4.40;;;9.70;99.90;;;;;;5073795;28;20220;-45
2021/03/08 00:03:52;;;;;;;6.85;4.35;;;9.60;99.90;;;;;;5081681;28;20634;-44
2021/03/08 00:06:22;;;;;;;6.65;4.00;;;9.70;99.90;;;;;;5080980;28;20210;-46
2021/03/08 00:08:52;;;;;;;5.57;4.28;;;10.00;99.90;;;;;;5071946;28;20218;-44
2021/03/08 00:11:22;;;;;;;7.22;3.50;;;10.40;99.90;;;;;;5078258;28;20198;-49
2021/03/08 00:13:52;;;;;;;9.15;3.60;;;10.60;99.90;;;;;;5083496;28;20236;-45
2021/03/08 00:16:23;;;;;;;5.22;3.40;;;10.50;99.90;;;;;;5064732;28;20203;-45
2021/03/08 00:18:55;;;;;;;7.72;2.80;;;10.40;99.90;;;;;;5067584;28;20195;-44
2021/03/08 00:21:25;;;;;;;6.47;3.42;;;10.30;99.90;;;;;;5070157;28;20505;-48
2021/03/08 00:23:55;;;;;;;4.65;3.28;;;10.20;99.90;;;;;;5076716;28;20203;-48
2021/03/08 00:26:26;;;;;;;6.32;3.63;;;10.10;99.90;;;;;;5062177;28;20228;-46
2021/03/08 00:29:14;;;;;;;4.60;2.90;;;10.00;99.90;;;;;;5067208;28;20199;-46
2021/03/08 00:31:44;;;;;;;7.47;3.80;;;9.90;99.90;;;;;;5070694;28;20208;-47
2021/03/08 00:34:16;;;;;;;4.35;2.90;;;9.80;99.90;;;;;;5076513;28;20842;-48
2021/03/08 00:36:46;;;;;;;4.28;3.17;;;9.70;99.90;;;;;;5061584;28;20232;-46
2021/03/08 00:39:16;;;;;;;4.95;4.00;;;9.80;99.90;;;;;;5077177;28;20251;-48
2021/03/08 00:41:46;;;;;;;4.35;3.20;;;9.80;99.90;;;;;;5077559;28;20230;-47
2021/03/08 00:44:16;;;;;;;9.10;5.85;;;9.70;99.90;;;;;;5071665;28;20206;-46
2021/03/08 00:46:46;;;;;;;7.95;5.40;;;9.80;99.90;;;;;;5063281;28;20612;-45
2021/03/08 00:49:17;;;;;;;7.88;5.82;;;9.80;99.90;;;;;;5067337;28;20204;-47
2021/03/08 00:51:47;;;;;;;6.80;6.20;;;9.60;99.90;;;;;;5067130;28;20213;-46
2021/03/08 00:54:17;;;;;;;9.25;6.18;;;9.60;99.90;;;;;;5071604;28;20202;-46
2021/03/08 00:56:47;;;;;;;8.80;6.15;;;9.70;99.90;;;;;;5065458;28;20264;-52
2021/03/08 00:59:36;;;;;;;7.97;5.97;;;9.60;99.90;;;;;;5063431;28;20215;-49
2021/03/08 01:02:06;;;;;;;7.85;6.28;;;9.60;99.90;;;;;;5073427;28;20224;-48
2021/03/08 01:04:38;;;;;;;9.85;5.10;;;9.50;99.90;;;;;;5073830;28;20195;-46
2021/03/08 01:07:08;;;;;;;6.32;5.07;;;9.20;99.90;;;;;;5069787;28;20222;-44
2021/03/08 01:09:38;;;;;;;7.20;6.00;;;9.10;99.90;;;;;;5068076;28;20756;-44
2021/03/08 01:12:09;;;;;;;8.05;5.50;;;9.20;99.90;;;;;;5075368;28;20982;-44
2021/03/08 01:14:39;;;;;;;9.40;5.82;;;9.10;99.90;;;;;;5061816;28;20213;-51
2021/03/08 01:17:10;;;;;;;9.50;5.68;;;9.00;99.90;;;;;;5063739;28;20295;-45
2021/03/08 01:19:41;;;;;;;9.70;5.13;;;9.00;99.90;;;;;;5064335;28;20190;-47
2021/03/08 01:22:12;;;;;;;7.07;5.40;;;9.00;99.90;;;;;;5076995;28;20206;-48
2021/03/08 01:24:42;;;;;;;7.13;5.60;;;9.10;99.90;;;;;;5080652;28;20217;-45
2021/03/08 01:27:12;;;;;;;7.85;6.15;;;9.10;99.90;;;;;;5079245;28;20225;-45
2021/03/08 01:29:50;;;;;;;9.10;5.28;;;9.10;99.90;;;;;;5082413;28;20221;-47
2021/03/08 01:32:20;;;;;;;7.75;6.95;;;9.10;99.90;;;;;;5077524;28;20677;-50
2021/03/08 01:34:51;;;;;;;7.35;5.57;;;9.10;99.90;;;;;;5074877;28;20609;-48
2021/03/08 01:37:21;;;;;;;6.95;4.90;;;8.90;99.90;;;;;;5081092;28;20209;-48
2021/03/08 01:39:51;;;;;;;10.25;6.18;;;8.80;99.90;;;;;;5081281;28;20210;-47
2021/03/08 01:42:21;;;;;;;7.20;5.15;;;8.70;99.90;;;;;;5080505;28;20293;-53
2021/03/08 01:44:51;;;;;;;8.57;5.82;;;8.60;99.90;;;;;;5080611;28;20234;-48
2021/03/08 01:47:21;;;;;;;7.85;5.10;;;8.60;99.90;;;;;;5076971;28;20279;-46
2021/03/08 01:49:53;;;;;;;10.77;6.03;;;8.50;99.90;;;;;;5082952;28;20206;-50
2021/03/08 01:52:24;;;;;;;6.65;5.30;;;8.50;99.90;;;;;;5079507;28;20278;-46
2021/03/08 01:54:55;;;;;;;6.97;5.60;;;8.50;99.90;;;;;;5069005;28;20209;-49
2021/03/08 01:57:25;;;;;;;12.88;6.10;;;8.40;99.90;;;;;;5066792;28;20202;-47
2021/03/08 01:59:55;;;;;;;8.05;6.40;;;8.30;99.90;;;;;;5072415;28;20322;-48
2021/03/08 02:02:26;;;;;;;9.32;8.05;;;8.20;99.90;;;;;;5072765;28;20264;-47
2021/03/08 02:04:57;;;;;;;8.50;6.65;;;8.20;99.90;;;;;;5070949;28;20229;-51
2021/03/08 02:07:27;;;;;;;11.80;6.53;;;8.30;99.90;;;;;;5082682;28;20228;-48
2021/03/08 02:09:57;;;;;;;9.57;7.70;;;8.20;99.90;;;;;;5070982;28;20209;-45
2021/03/08 02:12:38;;;;;;;8.52;7.63;;;8.20;99.90;;;;;;5082246;28;20197;-45
2021/03/08 02:15:20;;;;;;;9.27;6.07;;;8.20;99.90;;;;;;5085700;28;20608;-44
2021/03/08 02:17:58;;;;;;;8.00;5.65;;;8.10;99.90;;;;;;5074618;28;20855;-45
2021/03/08 02:20:49;;;;;;;9.77;6.57;;;8.10;99.90;;;;;;5083857;28;20201;-49
2021/03/08 02:23:52;;;;;;;12.20;6.40;;;8.00;99.90;;;;;;5084086;28;20263;-49
2021/03/08 02:26:32;;;;;;;12.75;6.75;;;8.00;99.90;;;;;;5066826;28;20206;-46
2021/03/08 02:29:18;;;;;;;8.90;6.82;;;8.00;99.90;;;;;;5069044;28;20283;-46
2021/03/08 02:31:52;;;;;;;10.93;6.97;;;7.80;99.90;;;;;;5066426;28;20202;-45
2021/03/08 02:34:28;;;;;;;20.15;8.40;;;7.60;99.90;;;;;;5073931;28;20275;-46
2021/03/08 02:37:03;;;;;;;9.27;6.57;;;7.50;99.90;;;;;;5071642;28;20197;-44
2021/03/08 02:39:36;;;;;;;10.60;8.15;;;7.30;99.90;;;;;;5071041;28;20240;-44
2021/03/08 02:42:10;;;;;;;9.80;6.82;;;7.20;99.90;;;;;;5065813;28;20198;-43
2021/03/08 02:44:41;;;;;;;7.85;6.90;;;7.20;99.90;;;;;;5073188;28;20275;-45
2021/03/08 02:47:14;;;;;;;8.75;5.93;;;7.30;99.90;;;;;;5065930;28;20252;-45
2021/03/08 02:49:47;;;;;;;10.45;6.85;;;7.30;99.90;;;;;;5070257;28;20328;-46
2021/03/08 02:52:21;;;;;;;11.82;6.82;;;7.40;99.90;;;;;;5065623;28;20244;-43
2021/03/08 02:54:55;;;;;;;8.95;6.70;;;7.30;99.90;;;;;;5075003;28;20335;-44
2021/03/08 02:57:30;;;;;;;14.30;7.10;;;7.20;99.90;;;;;;5065890;28;20232;-48
2021/03/08 03:00:02;;;;;;;7.85;7.05;;;7.10;99.90;;;;;;5081496;28;20205;-46
2021/03/08 03:02:34;;;;;;;36.55;11.05;;;7.00;99.90;;;;;;5065572;28;20223;-47
2021/03/08 03:05:07;;;;;;;10.32;6.70;;;6.90;99.90;;;;;;5072138;28;20288;-47
2021/03/08 03:07:40;;;;;;;10.57;6.43;;;6.90;99.90;;;;;;5076995;28;20233;-46
2021/03/08 03:10:11;;;;;;;9.60;6.97;;;6.80;99.90;;;;;;5072306;28;20190;-43
2021/03/08 03:12:42;;;;;;;10.35;8.85;;;6.80;99.90;;;;;;5070244;28;20187;-45
2021/03/08 03:15:14;;;;;;;12.48;7.72;;;6.70;99.90;;;;;;5077254;28;20206;-43
2021/03/08 03:17:47;;;;;;;10.93;7.35;;;6.70;99.90;;;;;;5067462;28;20225;-43
2021/03/08 03:20:19;;;;;;;9.38;7.40;;;6.60;99.90;;;;;;5064673;28;20194;-46
2021/03/08 03:22:52;;;;;;;13.50;8.07;;;6.50;99.90;;;;;;5066006;28;20198;-47
2021/03/08 03:25:25;;;;;;;9.27;6.80;;;6.40;99.90;;;;;;5077487;28;20194;-43
2021/03/08 03:27:55;;;;;;;14.57;7.13;;;6.40;99.90;;;;;;5080936;28;20217;-43
2021/03/08 03:30:29;;;;;;;11.52;7.43;;;6.30;99.90;;;;;;5083140;28;20334;-48
2021/03/08 03:33:00;;;;;;;12.55;8.43;;;6.30;99.90;;;;;;5080847;28;20229;-46
2021/03/08 03:35:31;;;;;;;10.10;7.75;;;6.30;99.90;;;;;;5076000;28;20202;-47
2021/03/08 03:38:03;;;;;;;13.10;7.07;;;6.10;99.90;;;;;;5084447;28;20212;-42
2021/03/08 03:40:33;;;;;;;9.30;7.22;;;6.00;99.90;;;;;;5070656;28;20248;-44
2021/03/08 03:43:04;;;;;;;150.05;29.17;;;6.00;99.90;;;;;;5078955;28;20247;-44
2021/03/08 03:45:34;;;;;;;1032.75;195.23;;;6.10;99.90;;;;;;5068749;28;20643;-46
2021/03/08 03:48:06;;;;;;;154.60;27.75;;;6.30;99.90;;;;;;5064644;28;20264;-50
2021/03/08 03:50:37;;;;;;;13.43;7.93;;;6.30;99.90;;;;;;5064399;28;20206;-46
2021/03/08 03:53:07;;;;;;;10.70;7.95;;;6.20;99.90;;;;;;5064355;28;20213;-44
2021/03/08 03:55:38;;;;;;;7.80;6.85;;;6.10;99.90;;;;;;5070767;28;20260;-45
2021/03/08 03:58:11;;;;;;;9.52;7.15;;;6.00;99.90;;;;;;5068282;28;20186;-47
2021/03/08 04:00:47;;;;;;;8.75;7.30;;;6.00;99.90;;;;;;5068660;28;20194;-47
2021/03/08 04:03:22;;;;;;;7.75;6.57;;;5.90;99.90;;;;;;5069009;28;20263;-48
2021/03/08 04:05:54;;;;;;;10.02;8.00;;;5.80;99.90;;;;;;5070630;28;20747;-50
2021/03/08 04:08:27;;;;;;;13.27;7.68;;;5.80;99.90;;;;;;5078294;28;20299;-46
2021/03/08 04:11:02;;;;;;;10.02;7.10;;;5.80;99.90;;;;;;5074903;28;20207;-46
2021/03/08 04:13:34;;;;;;;8.80;6.80;;;5.80;99.90;;;;;;5070245;28;20197;-48
2021/03/08 04:16:07;;;;;;;6.90;5.95;;;5.80;99.90;;;;;;5074523;28;20201;-43
2021/03/08 04:18:41;;;;;;;7.95;5.78;;;5.80;99.90;;;;;;5081970;28;20208;-47
2021/03/08 04:21:13;;;;;;;8.57;6.30;;;5.80;99.90;;;;;;5083771;28;20196;-48
2021/03/08 04:23:44;;;;;;;28.88;10.60;;;5.70;99.90;;;;;;5083556;28;20205;-49
2021/03/08 04:26:15;;;;;;;180.20;35.60;;;5.80;99.90;;;;;;5073500;28;20201;-47
2021/03/08 04:28:46;;;;;;;7.90;6.05;;;5.90;99.90;;;;;;5076291;28;20251;-49
2021/03/08 04:31:17;;;;;;;7.88;5.90;;;5.80;99.90;;;;;;5072263;28;20642;-46
2021/03/08 04:33:50;;;;;;;7.22;6.53;;;5.80;99.90;;;;;;5080114;28;20231;-51
2021/03/08 04:36:22;;;;;;;7.82;7.03;;;5.70;99.90;;;;;;5065272;28;20206;-47
2021/03/08 04:38:52;;;;;;;8.55;6.32;;;5.70;99.90;;;;;;5069706;28;20323;-49
2021/03/08 04:41:22;;;;;;;9.05;5.85;;;5.60;99.90;;;;;;5081926;28;20201;-46
2021/03/08 04:43:52;;;;;;;6.80;6.20;;;5.60;99.90;;;;;;5070072;28;20201;-48
2021/03/08 04:46:24;;;;;;;7.30;5.30;;;5.50;99.90;;;;;;5064102;28;20210;-47
2021/03/08 04:48:56;;;;;;;6.93;5.55;;;5.50;99.90;;;;;;5073413;28;20220;-52
2021/03/08 04:51:26;;;;;;;9.00;5.50;;;5.50;99.90;;;;;;5082746;28;20227;-52
2021/03/08 04:53:57;;;;;;;6.40;5.55;;;5.50;99.90;;;;;;5077919;28;20665;-46
2021/03/08 04:56:34;;;;;;;7.55;6.15;;;5.50;99.90;;;;;;5078176;28;20197;-47
2021/03/08 04:59:05;;;;;;;6.32;5.25;;;5.50;99.90;;;;;;5082766;28;20193;-52
2021/03/08 05:01:36;;;;;;;9.13;5.65;;;5.50;99.90;;;;;;5080754;28;20259;-51
2021/03/08 05:04:10;;;;;;;7.22;5.03;;;5.50;99.90;;;;;;5074289;28;20324;-54
2021/03/08 05:06:41;;;;;;;6.35;5.75;;;5.50;99.90;;;;;;5072977;28;20205;-47
2021/03/08 05:09:13;;;;;;;6.50;5.30;;;5.40;99.90;;;;;;5076176;28;20281;-49
2021/03/08 05:11:44;;;;;;;6.63;5.32;;;5.40;99.90;;;;;;5081437;28;20212;-45
2021/03/08 05:14:18;;;;;;;6.28;5.50;;;5.40;99.90;;;;;;5078734;28;20198;-45
2021/03/08 05:19:43;;;;;;;7.85;5.78;;;5.30;99.90;;;;;;5069939;28;20285;-47
2021/03/08 05:22:16;;;;;;;7.40;5.78;;;5.30;99.90;;;;;;5068283;28;20248;-46
2021/03/08 05:24:51;;;;;;;7.00;5.85;;;5.20;99.90;;;;;;5082599;28;20205;-48
2021/03/08 05:27:21;;;;;;;10.93;7.63;;;5.10;99.90;;;;;;5081314;28;20219;-47
2021/03/08 05:29:53;;;;;;;11.95;6.57;;;5.10;99.90;;;;;;5069720;28;20198;-47
2021/03/08 05:32:29;;;;;;;7.90;7.00;;;5.10;99.90;;;;;;5068692;28;20231;-45
2021/03/08 05:35:01;;;;;;;10.43;7.00;;;5.10;99.90;;;;;;5081347;28;20213;-48
2021/03/08 05:37:31;;;;;;;7.40;6.68;;;5.10;99.90;;;;;;5083089;28;20231;-46
2021/03/08 05:40:03;;;;;;;8.82;6.45;;;5.00;99.90;;;;;;5078133;28;20217;-49
2021/03/08 05:42:38;;;;;;;8.10;6.93;;;5.00;99.90;;;;;;5076429;28;20209;-46
2021/03/08 05:45:11;;;;;;;8.48;6.97;;;5.10;99.90;;;;;;5080618;28;20204;-46
2021/03/08 05:48:23;;;;;;;9.70;6.93;;;5.00;99.90;;;;;;5077569;28;20235;-50
2021/03/08 05:51:19;;;;;;;7.53;6.28;;;5.00;99.90;;;;;;5015191;28;20317;-45
2021/03/08 05:54:29;;;;;;;8.98;7.38;;;5.00;99.90;;;;;;5016967;28;20227;-46
2021/03/08 05:57:26;;;;;;;9.75;7.22;;;5.00;99.90;;;;;;4999526;28;20203;-46
2021/03/08 06:00:19;;;;;;;9.57;7.97;;;5.00;99.90;;;;;;5011517;28;20211;-43
2021/03/08 06:03:09;;;;;;;9.38;8.20;;;4.90;99.90;;;;;;5014432;28;20294;-46
2021/03/08 06:06:27;;;;;;;12.25;7.50;;;4.90;99.90;;;;;;5018869;28;20211;-44
2021/03/08 06:09:22;;;;;;;12.80;8.05;;;4.90;99.90;;;;;;4964169;28;20300;-46
2021/03/08 06:12:01;;;;;;;9.60;8.38;;;4.80;99.90;;;;;;4973116;28;20223;-41
2021/03/08 06:14:36;;;;;;;9.52;8.10;;;4.80;99.90;;;;;;4970968;28;20212;-44
2021/03/08 06:17:08;;;;;;;9.30;8.05;;;4.80;99.90;;;;;;4969212;28;20235;-44
2021/03/08 06:19:40;;;;;;;9.43;8.45;;;4.70;99.90;;;;;;4979682;28;20652;-42
2021/03/08 06:22:12;;;;;;;11.70;9.43;;;4.60;99.90;;;;;;4982543;28;20240;-44
2021/03/08 06:24:43;;;;;;;10.18;7.88;;;4.70;99.90;;;;;;4978337;28;20205;-42
2021/03/08 06:27:15;;;;;;;11.45;10.25;;;4.70;99.90;;;;;;5001145;28;20229;-42
2021/03/08 06:29:45;;;;;;;11.35;9.40;;;4.70;99.90;;;;;;5009375;28;20215;-42
2021/03/08 06:32:15;;;;;;;13.10;11.90;;;4.60;99.90;;;;;;5017008;28;20203;-44
2021/03/08 06:34:46;;;;;;;15.23;13.52;;;4.60;99.90;;;;;;5021155;28;20271;-43
2021/03/08 06:37:17;;;;;;;17.73;13.07;;;4.60;99.90;;;;;;5015936;28;20294;-43
2021/03/08 06:39:48;;;;;;;14.93;13.27;;;4.50;99.90;;;;;;5013927;28;20199;-45
2021/03/08 06:42:19;;;;;;;15.43;12.52;;;4.50;99.90;;;;;;5040306;28;20205;-42
2021/03/08 06:44:51;;;;;;;16.42;12.65;;;4.50;99.90;;;;;;5075061;28;20225;-42
2021/03/08 06:47:21;;;;;;;16.08;11.77;;;4.40;99.90;;;;;;5075312;28;20220;-46
2021/03/08 06:49:54;;;;;;;15.25;12.63;;;4.50;99.90;;;;;;5078447;28;20760;-43
2021/03/08 06:52:39;;;;;;;13.35;11.05;;;4.50;99.90;;;;;;5083638;28;20208;-42
2021/03/08 06:55:10;;;;;;;14.45;10.82;;;4.50;99.90;;;;;;5083517;28;20258;-43
2021/03/08 06:57:42;;;;;;;10.98;9.57;;;4.50;99.90;;;;;;5084742;28;20247;-43
2021/03/08 07:00:14;;;;;;;14.80;12.45;;;4.50;99.90;;;;;;5083409;28;20267;-43
2021/03/08 07:02:45;;;;;;;13.95;11.88;;;4.40;99.90;;;;;;5078942;28;20231;-43
2021/03/08 07:05:26;;;;;;;14.70;11.27;;;4.30;99.90;;;;;;5082271;28;20571;-43
2021/03/08 07:07:59;;;;;;;11.63;10.10;;;4.30;99.90;;;;;;5080062;28;20229;-42
2021/03/08 07:10:34;;;;;;;11.13;9.93;;;4.30;99.90;;;;;;5084568;28;20201;-43
2021/03/08 07:13:05;;;;;;;12.98;10.65;;;4.30;99.90;;;;;;5084563;28;20228;-49
2021/03/08 07:15:55;;;;;;;12.55;9.15;;;4.30;99.90;;;;;;5076250;28;20213;-46
2021/03/08 07:18:26;;;;;;;10.80;8.48;;;4.10;99.90;;;;;;5081472;28;20251;-47
2021/03/08 07:21:14;;;;;;;12.82;9.10;;;4.10;99.90;;;;;;5077346;28;20259;-45
2021/03/08 07:23:46;;;;;;;9.75;8.77;;;4.10;99.90;;;;;;5073720;28;20232;-43
2021/03/08 07:26:17;;;;;;;10.38;8.43;;;4.00;99.90;;;;;;5074063;28;20659;-43
2021/03/08 07:29:08;;;;;;;9.70;7.65;;;4.00;99.90;;;;;;5084707;28;20236;-43
2021/03/08 07:31:39;;;;;;;10.63;8.70;;;4.00;99.90;;;;;;5073157;28;20669;-45
2021/03/08 07:34:10;;;;;;;10.23;8.32;;;4.00;99.90;;;;;;5072314;28;20202;-45
2021/03/08 07:36:40;;;;;;;8.98;7.18;;;4.00;99.90;;;;;;5070256;28;20281;-44
2021/03/08 07:39:17;;;;;;;11.10;8.30;;;4.00;99.90;;;;;;5082609;28;20267;-43
2021/03/08 07:41:59;;;;;;;11.65;8.98;;;4.00;99.90;;;;;;5083565;28;20223;-43
2021/03/08 07:44:30;;;;;;;11.50;9.23;;;4.00;99.90;;;;;;5081577;28;20198;-48
2021/03/08 07:47:15;;;;;;;9.82;8.20;;;3.90;99.90;;;;;;5080156;28;20304;-46
2021/03/08 07:49:45;;;;;;;10.30;7.13;;;4.00;99.90;;;;;;5078163;28;20227;-44
2021/03/08 07:52:17;;;;;;;8.38;7.57;;;4.00;99.90;;;;;;5066213;28;20266;-44
2021/03/08 07:54:59;;;;;;;11.85;7.95;;;4.00;99.90;;;;;;5079189;28;20206;-48
2021/03/08 07:57:30;;;;;;;9.70;7.10;;;4.00;99.90;;;;;;5074736;28;20210;-45
2021/03/08 08:00:00;;;;;;;11.77;7.30;;;4.00;99.90;;;;;;5080442;28;20205;-43
2021/03/08 08:02:30;;;;;;;14.65;9.00;;;3.90;99.90;;;;;;5068347;28;20250;-46
2021/03/08 08:05:04;;;;;;;14.70;10.98;;;3.80;99.90;;;;;;5065835;28;20201;-44
2021/03/08 08:07:35;;;;;;;10.38;9.05;;;3.80;99.90;;;;;;5075733;28;20254;-44
2021/03/08 08:10:08;;;;;;;15.70;11.30;;;3.70;99.90;;;;;;5083354;28;20217;-43
2021/03/08 08:12:39;;;;;;;13.43;11.27;;;3.80;99.90;;;;;;5072892;28;20215;-45
2021/03/08 08:15:12;;;;;;;8.30;7.47;;;3.80;99.90;;;;;;5075375;28;20206;-45
2021/03/08 08:17:45;;;;;;;8.48;6.88;;;3.90;99.90;;;;;;5067173;28;20226;-44
2021/03/08 08:20:15;;;;;;;7.97;5.65;;;3.90;99.90;;;;;;5080707;28;20202;-44
2021/03/08 08:22:53;;;;;;;7.35;6.18;;;3.80;99.90;;;;;;5083809;28;20250;-44
2021/03/08 08:25:24;;;;;;;8.38;5.80;;;3.80;99.90;;;;;;5083227;28;20669;-44
2021/03/08 08:27:55;;;;;;;7.85;5.65;;;3.80;99.90;;;;;;5070572;28;20244;-44
2021/03/08 08:30:27;;;;;;;8.82;5.60;;;3.80;99.90;;;;;;5081025;28;20221;-47
2021/03/08 08:32:58;;;;;;;5.68;4.78;;;3.70;99.90;;;;;;5082032;28;20213;-46
2021/03/08 08:35:34;;;;;;;8.23;5.50;;;3.70;99.90;;;;;;5074371;28;20197;-45
2021/03/08 08:38:22;;;;;;;5.47;4.97;;;3.80;99.90;;;;;;5083275;28;20217;-45
2021/03/08 08:41:19;;;;;;;9.55;5.35;;;3.70;99.90;;;;;;5076630;28;20201;-44
2021/03/08 08:44:10;;;;;;;4.30;3.90;;;3.60;99.90;;;;;;5072321;28;20216;-44
2021/03/08 08:46:41;;;;;;;6.85;5.03;;;3.60;99.90;;;;;;5063461;28;20274;-44
2021/03/08 08:49:13;;;;;;;5.55;4.93;;;3.50;99.90;;;;;;5070664;28;20282;-44
2021/03/08 08:51:51;;;;;;;7.80;5.05;;;3.40;99.90;;;;;;5082648;28;20277;-45
2021/03/08 08:54:54;;;;;;;6.78;5.18;;;3.40;99.90;;;;;;5079505;28;20197;-44
2021/03/08 08:57:25;;;;;;;8.60;6.18;;;3.40;99.90;;;;;;5064065;28;20311;-44
2021/03/08 09:00:14;;;;;;;8.00;5.75;;;3.40;99.90;;;;;;5065435;28;20205;-45
2021/03/08 09:02:45;;;;;;;11.50;8.30;;;3.40;99.90;;;;;;5080159;28;20240;-44
2021/03/08 09:05:40;;;;;;;11.07;8.20;;;3.40;99.90;;;;;;5072274;28;20198;-44
2021/03/08 09:08:33;;;;;;;8.30;7.40;;;3.50;99.90;;;;;;5078169;28;20225;-44
2021/03/08 09:11:03;;;;;;;11.20;7.55;;;3.60;99.90;;;;;;5072650;28;20235;-44
2021/03/08 09:13:34;;;;;;;10.98;7.35;;;3.50;99.90;;;;;;5081226;28;20205;-44
2021/03/08 09:16:42;;;;;;;8.50;7.20;;;3.50;99.90;;;;;;5077194;28;20209;-45
2021/03/08 09:19:21;;;;;;;7.50;5.93;;;3.50;99.90;;;;;;5069753;28;20205;-46
2021/03/08 09:21:51;;;;;;;8.57;6.72;;;3.50;99.90;;;;;;5077485;28;20277;-47
2021/03/08 09:24:35;;;;;;;10.02;6.07;;;3.50;99.90;;;;;;5076003;28;20736;-44
2021/03/08 09:27:05;;;;;;;9.77;6.13;;;3.50;99.90;;;;;;5082969;28;20216;-45
2021/03/08 09:29:40;;;;;;;8.55;5.80;;;3.50;99.90;;;;;;5081400;28;20229;-45
2021/03/08 09:32:12;;;;;;;10.73;6.20;;;3.50;99.90;;;;;;5082592;28;20582;-43
2021/03/08 09:34:42;;;;;;;8.02;5.55;;;3.50;99.90;;;;;;5069378;28;20211;-48
2021/03/08 09:37:15;;;;;;;8.38;6.88;;;3.40;99.90;;;;;;5071011;28;20685;-44
2021/03/08 09:39:52;;;;;;;7.32;6.57;;;3.40;99.90;;;;;;5081812;28;20277;-45
2021/03/08 09:42:22;;;;;;;7.68;6.30;;;3.40;99.90;;;;;;5077282;28;20228;-44
2021/03/08 09:44:54;;;;;;;7.38;6.43;;;3.40;99.90;;;;;;5076543;28;20204;-47
2021/03/08 09:47:38;;;;;;;8.32;7.22;;;3.40;99.90;;;;;;5081576;28;20558;-48
2021/03/08 09:50:16;;;;;;;10.30;7.50;;;3.40;99.90;;;;;;5082283;28;20647;-45
2021/03/08 09:52:53;;;;;;;8.05;6.53;;;3.30;99.90;;;;;;5072048;28;20227;-44
2021/03/08 09:55:27;;;;;;;9.88;7.93;;;3.30;99.90;;;;;;5080370;28;20201;-47
2021/03/08 09:57:58;;;;;;;10.60;8.43;;;3.20;99.90;;;;;;5078183;28;20292;-48
2021/03/08 10:00:32;;;;;;;12.35;8.32;;;3.10;99.90;;;;;;5079751;28;20251;-48
2021/03/08 10:03:04;;;;;;;13.82;9.57;;;3.20;99.90;;;;;;5080225;28;20201;-45
2021/03/08 10:05:46;;;;;;;13.20;9.30;;;3.20;99.90;;;;;;5079682;28;20205;-48
2021/03/08 10:08:17;;;;;;;13.77;7.28;;;3.10;99.90;;;;;;5085284;28;20717;-48
2021/03/08 10:10:48;;;;;;;10.57;8.15;;;3.00;99.90;;;;;;5068512;28;20263;-50
2021/03/08 10:13:19;;;;;;;12.68;7.43;;;3.00;99.90;;;;;;5080033;28;20224;-50
2021/03/08 10:15:51;;;;;;;11.73;8.15;;;3.00;99.90;;;;;;5084974;28;20201;-47
2021/03/08 10:18:24;;;;;;;10.70;8.55;;;3.00;99.90;;;;;;5083127;28;20229;-50
2021/03/08 10:20:55;;;;;;;11.07;8.65;;;2.90;99.90;;;;;;5079936;28;20582;-46
2021/03/08 10:23:26;;;;;;;12.18;9.00;;;2.90;99.90;;;;;;5085888;28;20209;-48
2021/03/08 10:26:07;;;;;;;12.18;9.25;;;2.90;99.90;;;;;;5084258;28;20642;-51
2021/03/08 10:28:38;;;;;;;12.63;9.75;;;2.90;99.90;;;;;;5069607;28;20240;-48
2021/03/08 10:31:18;;;;;;;14.93;10.15;;;2.90;99.90;;;;;;5068286;28;20221;-48
2021/03/08 10:33:52;;;;;;;14.80;12.10;;;2.80;99.90;;;;;;5069564;28;20201;-50
2021/03/08 10:36:23;;;;;;;17.23;13.70;;;2.80;99.90;;;;;;5075322;28;20199;-50
2021/03/08 10:38:59;;;;;;;20.48;14.65;;;2.80;99.90;;;;;;5084674;28;20352;-46
2021/03/08 10:41:30;;;;;;;22.25;15.32;;;2.90;99.90;;;;;;5085104;28;20271;-51
2021/03/08 10:44:00;;;;;;;19.17;14.45;;;2.80;99.90;;;;;;5081862;28;20206;-50
2021/03/08 10:46:33;;;;;;;24.58;16.80;;;2.80;99.90;;;;;;5078284;28;20299;-47
2021/03/08 10:49:04;;;;;;;30.45;20.65;;;2.70;99.90;;;;;;5081388;28;20320;-45
2021/03/08 10:51:35;;;;;;;23.48;17.52;;;2.70;99.90;;;;;;5082884;28;20278;-48
2021/03/08 10:54:08;;;;;;;19.90;15.45;;;2.70;99.90;;;;;;5085059;28;20201;-50
2021/03/08 10:56:39;;;;;;;21.17;12.93;;;2.70;99.90;;;;;;5070062;28;20228;-46
2021/03/08 10:59:24;;;;;;;12.75;10.43;;;2.70;99.90;;;;;;5083613;28;20209;-50
2021/03/08 11:02:05;;;;;;;13.18;9.60;;;2.70;99.90;;;;;;5083984;28;20212;-48
2021/03/08 11:04:36;;;;;;;12.10;9.40;;;2.70;99.90;;;;;;5084497;28;20285;-46
2021/03/08 11:07:07;;;;;;;15.75;11.07;;;2.80;99.90;;;;;;5084173;28;20670;-50
2021/03/08 11:09:38;;;;;;;14.20;10.43;;;2.80;99.90;;;;;;5083728;28;20224;-53
2021/03/08 11:12:19;;;;;;;16.15;11.13;;;3.00;99.90;;;;;;5084147;28;20224;-51
2021/03/08 11:14:53;;;;;;;13.98;12.00;;;3.10;99.90;;;;;;5069432;28;20223;-49
2021/03/08 11:17:35;;;;;;;18.48;11.77;;;3.20;99.90;;;;;;5067706;28;20233;-51
2021/03/08 11:20:08;;;;;;;15.43;11.90;;;3.20;99.90;;;;;;5065002;28;20214;-49
2021/03/08 11:22:54;;;;;;;21.23;15.98;;;3.40;99.90;;;;;;5068956;28;20247;-48
2021/03/08 11:25:41;;;;;;;20.25;14.43;;;3.40;99.90;;;;;;5071827;28;20251;-45
2021/03/08 11:28:12;;;;;;;40.97;21.00;;;3.50;99.90;;;;;;5084175;28;20209;-46
2021/03/08 11:30:48;;;;;;;42.25;21.55;;;3.50;99.90;;;;;;5081228;28;20289;-46
2021/03/08 11:33:21;;;;;;;39.17;23.13;;;3.60;99.90;;;;;;5084367;28;20211;-45
2021/03/08 11:35:52;;;;;;;45.88;23.95;;;3.70;99.90;;;;;;5079791;28;20205;-45
2021/03/08 11:38:26;;;;;;;42.35;21.48;;;3.70;99.90;;;;;;5069157;28;20219;-46
2021/03/08 11:40:56;;;;;;;50.63;24.25;;;3.80;99.90;;;;;;5066717;28;20248;-48
2021/03/08 11:43:27;;;;;;;39.88;23.05;;;3.90;99.90;;;;;;5079593;28;20206;-45
2021/03/08 11:45:57;;;;;;;42.05;23.77;;;3.90;99.90;;;;;;5082906;28;20209;-48
2021/03/08 11:48:29;;;;;;;48.00;23.30;;;3.90;99.90;;;;;;5083428;28;20248;-51
2021/03/08 11:50:59;;;;;;;40.67;22.50;;;3.80;99.90;;;;;;5069991;28;20197;-48
2021/03/08 11:53:29;;;;;;;41.70;22.75;;;3.80;99.90;;;;;;5083269;28;20201;-47
2021/03/08 11:55:59;;;;;;;34.20;21.52;;;3.80;99.90;;;;;;5083622;28;20251;-49
2021/03/08 11:58:29;;;;;;;35.90;21.98;;;3.80;99.90;;;;;;5083443;28;20213;-50
2021/03/08 12:01:00;;;;;;;33.97;21.65;;;3.80;99.90;;;;;;5078957;28;20207;-47
2021/03/08 12:03:31;;;;;;;28.40;19.15;;;3.80;99.90;;;;;;5078345;28;20205;-45
2021/03/08 12:06:01;;;;;;;28.80;19.30;;;3.80;99.90;;;;;;5079583;28;20269;-46
2021/03/08 12:08:31;;;;;;;33.63;19.63;;;3.90;99.90;;;;;;5071006;28;20222;-47
2021/03/08 12:11:05;;;;;;;27.55;18.00;;;3.80;99.90;;;;;;5079826;28;20197;-45
2021/03/08 12:13:35;;;;;;;29.42;18.05;;;3.70;99.90;;;;;;5083187;28;20213;-49
2021/03/08 12:16:06;;;;;;;26.73;18.45;;;3.70;99.90;;;;;;5079451;28;20205;-47
2021/03/08 12:18:38;;;;;;;37.88;18.33;;;3.70;99.90;;;;;;5068820;28;20279;-47
2021/03/08 12:21:09;;;;;;;36.42;18.42;;;3.70;99.90;;;;;;5080764;28;20236;-46
2021/03/08 12:23:39;;;;;;;27.88;17.30;;;3.70;99.90;;;;;;5076660;28;20202;-47
2021/03/08 12:26:09;;;;;;;22.90;16.90;;;3.70;99.90;;;;;;5078906;28;20527;-46
2021/03/08 12:28:39;;;;;;;25.10;16.65;;;3.70;99.90;;;;;;5077952;28;20239;-48
2021/03/08 12:31:18;;;;;;;26.33;16.48;;;3.60;99.90;;;;;;5071014;28;20205;-47
2021/03/08 12:33:50;;;;;;;17.92;14.55;;;3.60;99.90;;;;;;5080998;28;20198;-46
2021/03/08 12:36:20;;;;;;;21.50;14.55;;;3.60;99.90;;;;;;5081294;28;20231;-51
2021/03/08 12:38:50;;;;;;;21.50;15.68;;;3.60;99.90;;;;;;5069957;28;20209;-47
2021/03/08 12:41:20;;;;;;;17.92;14.02;;;3.60;99.90;;;;;;5065153;28;20275;-47
2021/03/08 12:43:51;;;;;;;22.00;15.40;;;3.60;99.90;;;;;;5073186;28;20351;-52
2021/03/08 12:46:23;;;;;;;24.20;14.98;;;3.60;99.90;;;;;;5081365;28;20278;-52
2021/03/08 12:48:55;;;;;;;20.55;15.73;;;3.60;99.90;;;;;;5073538;28;20251;-47
2021/03/08 12:51:25;;;;;;;21.85;17.33;;;3.50;99.90;;;;;;5082430;28;20760;-49
2021/03/08 12:53:55;;;;;;;22.10;17.08;;;3.50;99.90;;;;;;5082428;28;20217;-51
2021/03/08 12:56:25;;;;;;;23.48;18.50;;;3.50;99.90;;;;;;5068696;28;20740;-52
2021/03/08 12:58:55;;;;;;;22.73;17.48;;;3.50;99.90;;;;;;5078721;28;20205;-50
2021/03/08 13:01:25;;;;;;;26.40;17.08;;;3.60;99.90;;;;;;5070326;28;20258;-49
2021/03/08 13:03:56;;;;;;;24.55;17.05;;;3.50;99.90;;;;;;5082819;28;20202;-49
2021/03/08 13:06:26;;;;;;;21.73;17.48;;;3.40;99.90;;;;;;5069581;28;20198;-53
2021/03/08 13:09:05;;;;;;;21.80;16.42;;;3.30;99.90;;;;;;5081131;28;20225;-51
2021/03/08 13:11:36;;;;;;;24.73;17.55;;;3.40;99.90;;;;;;5067547;28;20206;-52
2021/03/08 13:14:06;;;;;;;27.50;17.58;;;3.30;99.90;;;;;;5076887;28;20199;-50
2021/03/08 13:16:36;;;;;;;21.20;15.35;;;3.30;99.90;;;;;;5079163;28;20251;-51
2021/03/08 13:19:08;;;;;;;24.33;15.95;;;3.30;99.90;;;;;;5065301;28;20201;-48
2021/03/08 13:21:38;;;;;;;19.00;14.35;;;3.30;99.90;;;;;;5074468;28;20228;-52
2021/03/08 13:24:09;;;;;;;20.08;14.20;;;3.30;99.90;;;;;;5085870;28;20200;-54
2021/03/08 13:26:39;;;;;;;19.77;14.63;;;3.20;99.90;;;;;;5080936;28;20217;-48